sensor_id;sensor_type;location;lat;lon;timestamp;P1;durP1;ratioP1;P2;durP2;ratioP2
68803;SDS011;55787;52.678;13.314;2022-07-05T00:01:01;6.88;;;2.20;;
68803;SDS011;55787;52.678;13.314;2022-07-05T00:03:28;6.47;;;1.92;;
68803;SDS011;55787;52.678;13.314;2022-07-05T00:05:55;6.47;;;1.90;;
68803;SDS011;55787;52.678;13.314;2022-07-05T00:08:22;6.88;;;2.13;;
68803;SDS011;55787;52.678;13.314;2022-07-05T00:10:49;7.53;;;2.00;;
68803;SDS011;55787;52.678;13.314;2022-07-05T00:13:16;8.45;;;2.40;;
68803;SDS011;55787;52.678;13.314;2022-07-05T00:15:42;6.55;;;2.00;;
68803;SDS011;55787;52.678;13.314;2022-07-05T00:18:09;7.03;;;2.03;;
68803;SDS011;55787;52.678;13.314;2022-07-05T00:20:35;6.53;;;2.03;;
68803;SDS011;55787;52.678;13.314;2022-07-05T00:23:03;7.80;;;2.30;;
68803;SDS011;55787;52.678;13.314;2022-07-05T00:25:29;8.27;;;2.50;;
68803;SDS011;55787;52.678;13.314;2022-07-05T00:27:56;6.28;;;2.15;;
68803;SDS011;55787;52.678;13.314;2022-07-05T00:30:22;7.82;;;2.58;;
68803;SDS011;55787;52.678;13.314;2022-07-05T00:32:49;9.90;;;2.50;;
68803;SDS011;55787;52.678;13.314;2022-07-05T00:35:16;6.77;;;2.23;;
68803;SDS011;55787;52.678;13.314;2022-07-05T00:37:42;9.35;;;2.40;;
68803;SDS011;55787;52.678;13.314;2022-07-05T00:40:08;6.95;;;2.03;;
68803;SDS011;55787;52.678;13.314;2022-07-05T00:42:35;7.15;;;2.08;;
68803;SDS011;55787;52.678;13.314;2022-07-05T00:45:03;7.82;;;2.30;;
68803;SDS011;55787;52.678;13.314;2022-07-05T00:47:31;6.80;;;1.83;;
68803;SDS011;55787;52.678;13.314;2022-07-05T00:49:57;7.90;;;2.10;;
68803;SDS011;55787;52.678;13.314;2022-07-05T00:52:23;8.50;;;2.05;;
68803;SDS011;55787;52.678;13.314;2022-07-05T00:54:50;6.82;;;2.17;;
68803;SDS011;55787;52.678;13.314;2022-07-05T00:57:18;6.15;;;2.00;;
68803;SDS011;55787;52.678;13.314;2022-07-05T00:59:47;6.30;;;2.10;;
68803;SDS011;55787;52.678;13.314;2022-07-05T01:02:13;6.97;;;1.85;;
68803;SDS011;55787;52.678;13.314;2022-07-05T01:04:44;6.32;;;2.00;;
68803;SDS011;55787;52.678;13.314;2022-07-05T01:07:12;6.85;;;2.00;;
68803;SDS011;55787;52.678;13.314;2022-07-05T01:09:39;7.55;;;2.05;;
68803;SDS011;55787;52.678;13.314;2022-07-05T01:12:06;7.25;;;1.98;;
68803;SDS011;55787;52.678;13.314;2022-07-05T01:14:34;6.00;;;1.85;;
68803;SDS011;55787;52.678;13.314;2022-07-05T01:17:01;6.88;;;1.90;;
68803;SDS011;55787;52.678;13.314;2022-07-05T01:19:28;7.70;;;2.10;;
68803;SDS011;55787;52.678;13.314;2022-07-05T01:21:55;8.52;;;2.10;;
68803;SDS011;55787;52.678;13.314;2022-07-05T01:24:23;6.15;;;1.90;;
68803;SDS011;55787;52.678;13.314;2022-07-05T01:26:50;7.90;;;1.92;;
68803;SDS011;55787;52.678;13.314;2022-07-05T01:29:17;6.95;;;2.00;;
68803;SDS011;55787;52.678;13.314;2022-07-05T01:31:43;6.60;;;1.92;;
68803;SDS011;55787;52.678;13.314;2022-07-05T01:34:10;8.05;;;1.90;;
68803;SDS011;55787;52.678;13.314;2022-07-05T01:36:37;6.95;;;2.10;;
68803;SDS011;55787;52.678;13.314;2022-07-05T01:39:04;7.28;;;2.10;;
68803;SDS011;55787;52.678;13.314;2022-07-05T01:41:32;6.88;;;2.30;;
68803;SDS011;55787;52.678;13.314;2022-07-05T01:43:59;6.75;;;2.03;;
68803;SDS011;55787;52.678;13.314;2022-07-05T01:46:26;7.18;;;2.30;;
68803;SDS011;55787;52.678;13.314;2022-07-05T01:48:56;8.03;;;2.17;;
68803;SDS011;55787;52.678;13.314;2022-07-05T01:51:29;7.22;;;2.10;;
68803;SDS011;55787;52.678;13.314;2022-07-05T01:53:59;8.55;;;2.20;;
68803;SDS011;55787;52.678;13.314;2022-07-05T01:56:25;7.95;;;2.03;;
68803;SDS011;55787;52.678;13.314;2022-07-05T01:58:52;6.80;;;2.25;;
68803;SDS011;55787;52.678;13.314;2022-07-05T02:01:32;6.30;;;2.03;;
68803;SDS011;55787;52.678;13.314;2022-07-05T02:04:05;6.28;;;2.20;;
68803;SDS011;55787;52.678;13.314;2022-07-05T02:06:33;7.72;;;2.08;;
68803;SDS011;55787;52.678;13.314;2022-07-05T02:09:00;7.07;;;2.30;;
68803;SDS011;55787;52.678;13.314;2022-07-05T02:11:27;7.50;;;2.17;;
68803;SDS011;55787;52.678;13.314;2022-07-05T02:13:54;7.30;;;1.98;;
68803;SDS011;55787;52.678;13.314;2022-07-05T02:16:21;8.38;;;2.30;;
68803;SDS011;55787;52.678;13.314;2022-07-05T02:18:49;6.40;;;2.33;;
68803;SDS011;55787;52.678;13.314;2022-07-05T02:21:15;6.53;;;2.40;;
68803;SDS011;55787;52.678;13.314;2022-07-05T02:23:42;6.93;;;2.45;;
68803;SDS011;55787;52.678;13.314;2022-07-05T02:26:09;8.07;;;2.35;;
68803;SDS011;55787;52.678;13.314;2022-07-05T02:28:35;6.93;;;2.40;;
68803;SDS011;55787;52.678;13.314;2022-07-05T02:31:02;6.95;;;2.30;;
68803;SDS011;55787;52.678;13.314;2022-07-05T02:33:28;8.63;;;2.60;;
68803;SDS011;55787;52.678;13.314;2022-07-05T02:35:55;8.02;;;2.53;;
68803;SDS011;55787;52.678;13.314;2022-07-05T02:38:21;7.15;;;2.53;;
68803;SDS011;55787;52.678;13.314;2022-07-05T02:40:49;7.97;;;2.42;;
68803;SDS011;55787;52.678;13.314;2022-07-05T02:43:15;6.90;;;2.45;;
68803;SDS011;55787;52.678;13.314;2022-07-05T02:45:42;7.65;;;2.30;;
68803;SDS011;55787;52.678;13.314;2022-07-05T02:48:08;7.10;;;2.30;;
68803;SDS011;55787;52.678;13.314;2022-07-05T02:50:35;8.23;;;2.40;;
68803;SDS011;55787;52.678;13.314;2022-07-05T02:53:01;7.00;;;2.60;;
68803;SDS011;55787;52.678;13.314;2022-07-05T02:55:28;7.03;;;2.60;;
68803;SDS011;55787;52.678;13.314;2022-07-05T02:57:54;7.43;;;2.67;;
68803;SDS011;55787;52.678;13.314;2022-07-05T03:00:20;7.88;;;2.60;;
68803;SDS011;55787;52.678;13.314;2022-07-05T03:02:47;7.50;;;2.78;;
68803;SDS011;55787;52.678;13.314;2022-07-05T03:05:14;7.07;;;2.88;;
68803;SDS011;55787;52.678;13.314;2022-07-05T03:07:40;7.82;;;2.83;;
68803;SDS011;55787;52.678;13.314;2022-07-05T03:10:07;7.80;;;2.67;;
68803;SDS011;55787;52.678;13.314;2022-07-05T03:12:33;9.15;;;3.10;;
68803;SDS011;55787;52.678;13.314;2022-07-05T03:15:00;7.32;;;2.80;;
68803;SDS011;55787;52.678;13.314;2022-07-05T03:17:26;7.55;;;2.65;;
68803;SDS011;55787;52.678;13.314;2022-07-05T03:19:53;8.18;;;2.90;;
68803;SDS011;55787;52.678;13.314;2022-07-05T03:22:19;6.78;;;2.70;;
68803;SDS011;55787;52.678;13.314;2022-07-05T03:24:46;7.63;;;2.85;;
68803;SDS011;55787;52.678;13.314;2022-07-05T03:27:13;10.25;;;3.38;;
68803;SDS011;55787;52.678;13.314;2022-07-05T03:29:44;8.35;;;3.00;;
68803;SDS011;55787;52.678;13.314;2022-07-05T03:32:10;8.57;;;3.33;;
68803;SDS011;55787;52.678;13.314;2022-07-05T03:34:37;7.75;;;3.10;;
68803;SDS011;55787;52.678;13.314;2022-07-05T03:37:04;8.05;;;3.15;;
68803;SDS011;55787;52.678;13.314;2022-07-05T03:39:31;7.88;;;3.00;;
68803;SDS011;55787;52.678;13.314;2022-07-05T03:41:57;8.35;;;3.40;;
68803;SDS011;55787;52.678;13.314;2022-07-05T03:44:24;7.85;;;3.05;;
68803;SDS011;55787;52.678;13.314;2022-07-05T03:46:50;8.05;;;3.20;;
68803;SDS011;55787;52.678;13.314;2022-07-05T03:49:16;7.90;;;3.30;;
68803;SDS011;55787;52.678;13.314;2022-07-05T03:51:43;7.90;;;3.50;;
68803;SDS011;55787;52.678;13.314;2022-07-05T03:54:09;8.25;;;3.60;;
68803;SDS011;55787;52.678;13.314;2022-07-05T03:56:36;8.00;;;3.20;;
68803;SDS011;55787;52.678;13.314;2022-07-05T03:59:02;9.60;;;3.40;;
68803;SDS011;55787;52.678;13.314;2022-07-05T04:01:29;7.78;;;3.17;;
68803;SDS011;55787;52.678;13.314;2022-07-05T04:03:55;9.00;;;3.17;;
68803;SDS011;55787;52.678;13.314;2022-07-05T04:06:22;8.35;;;3.10;;
68803;SDS011;55787;52.678;13.314;2022-07-05T04:08:49;9.88;;;3.20;;
68803;SDS011;55787;52.678;13.314;2022-07-05T04:11:15;6.57;;;3.03;;
68803;SDS011;55787;52.678;13.314;2022-07-05T04:13:43;7.38;;;3.05;;
68803;SDS011;55787;52.678;13.314;2022-07-05T04:16:09;7.78;;;3.08;;
68803;SDS011;55787;52.678;13.314;2022-07-05T04:18:36;7.00;;;2.88;;
68803;SDS011;55787;52.678;13.314;2022-07-05T04:21:03;8.45;;;2.90;;
68803;SDS011;55787;52.678;13.314;2022-07-05T04:23:30;7.82;;;3.42;;
68803;SDS011;55787;52.678;13.314;2022-07-05T04:25:57;8.50;;;2.92;;
68803;SDS011;55787;52.678;13.314;2022-07-05T04:28:24;7.13;;;2.85;;
68803;SDS011;55787;52.678;13.314;2022-07-05T04:30:50;8.27;;;3.00;;
68803;SDS011;55787;52.678;13.314;2022-07-05T04:33:17;7.35;;;2.92;;
68803;SDS011;55787;52.678;13.314;2022-07-05T04:35:43;7.55;;;2.70;;
68803;SDS011;55787;52.678;13.314;2022-07-05T04:38:10;7.40;;;3.15;;
68803;SDS011;55787;52.678;13.314;2022-07-05T04:40:36;8.50;;;3.03;;
68803;SDS011;55787;52.678;13.314;2022-07-05T04:43:03;6.85;;;2.92;;
68803;SDS011;55787;52.678;13.314;2022-07-05T04:45:30;9.02;;;3.00;;
68803;SDS011;55787;52.678;13.314;2022-07-05T04:47:56;8.90;;;2.88;;
68803;SDS011;55787;52.678;13.314;2022-07-05T04:50:23;8.77;;;2.92;;
68803;SDS011;55787;52.678;13.314;2022-07-05T04:52:49;7.70;;;2.70;;
68803;SDS011;55787;52.678;13.314;2022-07-05T04:55:16;7.35;;;2.65;;
68803;SDS011;55787;52.678;13.314;2022-07-05T04:57:42;8.10;;;2.88;;
68803;SDS011;55787;52.678;13.314;2022-07-05T05:00:10;7.03;;;2.53;;
68803;SDS011;55787;52.678;13.314;2022-07-05T05:02:37;8.30;;;2.53;;
68803;SDS011;55787;52.678;13.314;2022-07-05T05:05:04;6.47;;;2.40;;
68803;SDS011;55787;52.678;13.314;2022-07-05T05:07:31;8.68;;;2.60;;
68803;SDS011;55787;52.678;13.314;2022-07-05T05:10:02;6.72;;;2.33;;
68803;SDS011;55787;52.678;13.314;2022-07-05T05:12:30;6.63;;;2.20;;
68803;SDS011;55787;52.678;13.314;2022-07-05T05:14:56;6.53;;;2.13;;
68803;SDS011;55787;52.678;13.314;2022-07-05T05:17:22;8.98;;;2.30;;
68803;SDS011;55787;52.678;13.314;2022-07-05T05:19:49;7.07;;;2.10;;
68803;SDS011;55787;52.678;13.314;2022-07-05T05:22:15;7.72;;;2.10;;
68803;SDS011;55787;52.678;13.314;2022-07-05T05:24:42;6.30;;;1.83;;
68803;SDS011;55787;52.678;13.314;2022-07-05T05:27:08;10.02;;;2.00;;
68803;SDS011;55787;52.678;13.314;2022-07-05T05:29:35;8.00;;;1.80;;
68803;SDS011;55787;52.678;13.314;2022-07-05T05:32:01;7.22;;;1.67;;
68803;SDS011;55787;52.678;13.314;2022-07-05T05:34:28;7.55;;;1.80;;
68803;SDS011;55787;52.678;13.314;2022-07-05T05:36:54;6.85;;;1.50;;
68803;SDS011;55787;52.678;13.314;2022-07-05T05:39:21;6.97;;;1.60;;
68803;SDS011;55787;52.678;13.314;2022-07-05T05:41:48;6.33;;;1.70;;
68803;SDS011;55787;52.678;13.314;2022-07-05T05:44:14;6.63;;;1.60;;
68803;SDS011;55787;52.678;13.314;2022-07-05T05:46:41;5.63;;;1.23;;
68803;SDS011;55787;52.678;13.314;2022-07-05T05:49:07;6.18;;;1.40;;
68803;SDS011;55787;52.678;13.314;2022-07-05T05:51:34;5.75;;;1.50;;
68803;SDS011;55787;52.678;13.314;2022-07-05T05:54:00;7.40;;;1.70;;
68803;SDS011;55787;52.678;13.314;2022-07-05T05:56:27;9.40;;;1.67;;
68803;SDS011;55787;52.678;13.314;2022-07-05T05:58:53;8.88;;;1.40;;
68803;SDS011;55787;52.678;13.314;2022-07-05T06:01:20;10.07;;;1.90;;
68803;SDS011;55787;52.678;13.314;2022-07-05T06:03:46;10.07;;;1.60;;
68803;SDS011;55787;52.678;13.314;2022-07-05T06:06:13;7.80;;;1.23;;
68803;SDS011;55787;52.678;13.314;2022-07-05T06:08:40;7.43;;;1.40;;
68803;SDS011;55787;52.678;13.314;2022-07-05T06:11:12;7.95;;;1.50;;
68803;SDS011;55787;52.678;13.314;2022-07-05T06:13:39;7.18;;;1.50;;
68803;SDS011;55787;52.678;13.314;2022-07-05T06:16:06;7.32;;;1.70;;
68803;SDS011;55787;52.678;13.314;2022-07-05T06:18:33;7.97;;;1.55;;
68803;SDS011;55787;52.678;13.314;2022-07-05T06:20:59;6.47;;;1.35;;
68803;SDS011;55787;52.678;13.314;2022-07-05T06:23:26;7.45;;;1.50;;
68803;SDS011;55787;52.678;13.314;2022-07-05T06:25:52;5.07;;;1.25;;
68803;SDS011;55787;52.678;13.314;2022-07-05T06:28:19;5.75;;;1.40;;
68803;SDS011;55787;52.678;13.314;2022-07-05T06:30:45;4.90;;;1.33;;
68803;SDS011;55787;52.678;13.314;2022-07-05T06:33:12;5.38;;;1.70;;
68803;SDS011;55787;52.678;13.314;2022-07-05T06:35:38;6.85;;;1.40;;
68803;SDS011;55787;52.678;13.314;2022-07-05T06:38:06;6.03;;;1.88;;
68803;SDS011;55787;52.678;13.314;2022-07-05T06:40:34;5.43;;;1.63;;
68803;SDS011;55787;52.678;13.314;2022-07-05T06:43:03;6.15;;;1.60;;
68803;SDS011;55787;52.678;13.314;2022-07-05T06:45:31;6.10;;;1.70;;
68803;SDS011;55787;52.678;13.314;2022-07-05T06:47:58;7.35;;;2.08;;
68803;SDS011;55787;52.678;13.314;2022-07-05T06:50:27;7.40;;;1.85;;
68803;SDS011;55787;52.678;13.314;2022-07-05T06:52:55;5.32;;;1.60;;
68803;SDS011;55787;52.678;13.314;2022-07-05T06:55:22;9.03;;;1.40;;
68803;SDS011;55787;52.678;13.314;2022-07-05T06:57:49;7.22;;;1.98;;
68803;SDS011;55787;52.678;13.314;2022-07-05T07:00:42;5.32;;;1.95;;
68803;SDS011;55787;52.678;13.314;2022-07-05T07:03:29;7.40;;;1.88;;
68803;SDS011;55787;52.678;13.314;2022-07-05T07:06:16;6.10;;;1.92;;
68803;SDS011;55787;52.678;13.314;2022-07-05T07:08:43;6.20;;;1.70;;
68803;SDS011;55787;52.678;13.314;2022-07-05T07:11:29;6.05;;;2.25;;
68803;SDS011;55787;52.678;13.314;2022-07-05T07:13:55;6.47;;;2.33;;
68803;SDS011;55787;52.678;13.314;2022-07-05T07:16:22;5.15;;;1.95;;
68803;SDS011;55787;52.678;13.314;2022-07-05T07:18:49;6.43;;;1.98;;
68803;SDS011;55787;52.678;13.314;2022-07-05T07:21:35;5.00;;;1.30;;
68803;SDS011;55787;52.678;13.314;2022-07-05T07:24:03;4.90;;;1.30;;
68803;SDS011;55787;52.678;13.314;2022-07-05T07:26:29;8.68;;;1.40;;
68803;SDS011;55787;52.678;13.314;2022-07-05T07:28:56;6.47;;;1.77;;
68803;SDS011;55787;52.678;13.314;2022-07-05T07:31:22;7.25;;;1.60;;
68803;SDS011;55787;52.678;13.314;2022-07-05T07:33:49;5.68;;;1.58;;
68803;SDS011;55787;52.678;13.314;2022-07-05T07:36:15;5.55;;;1.83;;
68803;SDS011;55787;52.678;13.314;2022-07-05T07:38:42;6.45;;;2.03;;
68803;SDS011;55787;52.678;13.314;2022-07-05T07:41:08;5.88;;;1.85;;
68803;SDS011;55787;52.678;13.314;2022-07-05T07:43:35;7.13;;;1.73;;
68803;SDS011;55787;52.678;13.314;2022-07-05T07:46:01;6.40;;;2.37;;
68803;SDS011;55787;52.678;13.314;2022-07-05T07:48:28;5.63;;;2.03;;
68803;SDS011;55787;52.678;13.314;2022-07-05T07:50:55;6.18;;;2.08;;
68803;SDS011;55787;52.678;13.314;2022-07-05T07:53:22;7.47;;;2.00;;
68803;SDS011;55787;52.678;13.314;2022-07-05T07:55:48;6.07;;;2.30;;
68803;SDS011;55787;52.678;13.314;2022-07-05T07:58:15;5.73;;;2.00;;
68803;SDS011;55787;52.678;13.314;2022-07-05T08:00:41;7.15;;;2.30;;
68803;SDS011;55787;52.678;13.314;2022-07-05T08:03:08;6.60;;;2.42;;
68803;SDS011;55787;52.678;13.314;2022-07-05T08:05:35;7.50;;;2.72;;
68803;SDS011;55787;52.678;13.314;2022-07-05T08:08:01;5.85;;;2.13;;
68803;SDS011;55787;52.678;13.314;2022-07-05T08:10:28;6.10;;;2.17;;
68803;SDS011;55787;52.678;13.314;2022-07-05T08:12:54;5.70;;;2.50;;
68803;SDS011;55787;52.678;13.314;2022-07-05T08:15:21;6.00;;;2.03;;
68803;SDS011;55787;52.678;13.314;2022-07-05T08:17:47;6.10;;;2.40;;
68803;SDS011;55787;52.678;13.314;2022-07-05T08:20:32;6.07;;;2.33;;
68803;SDS011;55787;52.678;13.314;2022-07-05T08:23:17;6.80;;;2.30;;
68803;SDS011;55787;52.678;13.314;2022-07-05T08:25:43;6.88;;;2.33;;
68803;SDS011;55787;52.678;13.314;2022-07-05T08:28:10;6.95;;;2.08;;
68803;SDS011;55787;52.678;13.314;2022-07-05T08:30:36;6.22;;;2.40;;
68803;SDS011;55787;52.678;13.314;2022-07-05T08:33:03;6.18;;;2.30;;
68803;SDS011;55787;52.678;13.314;2022-07-05T08:35:29;7.90;;;2.45;;
68803;SDS011;55787;52.678;13.314;2022-07-05T08:37:56;5.75;;;2.45;;
68803;SDS011;55787;52.678;13.314;2022-07-05T08:40:24;6.32;;;2.50;;
68803;SDS011;55787;52.678;13.314;2022-07-05T08:42:54;6.82;;;2.55;;
68803;SDS011;55787;52.678;13.314;2022-07-05T08:45:24;6.15;;;2.60;;
68803;SDS011;55787;52.678;13.314;2022-07-05T08:47:53;8.50;;;3.08;;
68803;SDS011;55787;52.678;13.314;2022-07-05T08:50:23;6.15;;;2.85;;
68803;SDS011;55787;52.678;13.314;2022-07-05T08:52:52;7.40;;;2.58;;
68803;SDS011;55787;52.678;13.314;2022-07-05T08:55:19;7.03;;;2.75;;
68803;SDS011;55787;52.678;13.314;2022-07-05T08:57:46;6.30;;;2.75;;
68803;SDS011;55787;52.678;13.314;2022-07-05T09:00:13;6.68;;;3.10;;
68803;SDS011;55787;52.678;13.314;2022-07-05T09:02:40;8.05;;;2.60;;
68803;SDS011;55787;52.678;13.314;2022-07-05T09:05:06;7.70;;;2.30;;
68803;SDS011;55787;52.678;13.314;2022-07-05T09:07:38;7.47;;;2.28;;
68803;SDS011;55787;52.678;13.314;2022-07-05T09:10:14;7.53;;;3.28;;
68803;SDS011;55787;52.678;13.314;2022-07-05T09:12:43;6.22;;;2.75;;
68803;SDS011;55787;52.678;13.314;2022-07-05T09:15:09;7.68;;;2.90;;
68803;SDS011;55787;52.678;13.314;2022-07-05T09:17:46;6.43;;;2.75;;
68803;SDS011;55787;52.678;13.314;2022-07-05T09:20:16;6.88;;;2.50;;
68803;SDS011;55787;52.678;13.314;2022-07-05T09:22:45;6.45;;;2.78;;
68803;SDS011;55787;52.678;13.314;2022-07-05T09:25:28;7.53;;;2.17;;
68803;SDS011;55787;52.678;13.314;2022-07-05T09:33:01;8.20;;;1.98;;
68803;SDS011;55787;52.678;13.314;2022-07-05T09:35:33;5.65;;;2.00;;
68803;SDS011;55787;52.678;13.314;2022-07-05T09:38:02;5.78;;;2.17;;
68803;SDS011;55787;52.678;13.314;2022-07-05T09:40:33;7.38;;;1.55;;
68803;SDS011;55787;52.678;13.314;2022-07-05T09:43:11;5.38;;;1.60;;
68803;SDS011;55787;52.678;13.314;2022-07-05T09:48:31;6.15;;;2.20;;
68803;SDS011;55787;52.678;13.314;2022-07-05T09:53:56;6.80;;;1.73;;
68803;SDS011;55787;52.678;13.314;2022-07-05T09:56:30;6.32;;;1.40;;
68803;SDS011;55787;52.678;13.314;2022-07-05T09:59:15;6.95;;;1.80;;
68803;SDS011;55787;52.678;13.314;2022-07-05T10:01:45;6.45;;;2.35;;
68803;SDS011;55787;52.678;13.314;2022-07-05T10:04:12;7.53;;;2.35;;
68803;SDS011;55787;52.678;13.314;2022-07-05T10:06:39;5.65;;;2.58;;
68803;SDS011;55787;52.678;13.314;2022-07-05T10:09:05;6.88;;;1.88;;
68803;SDS011;55787;52.678;13.314;2022-07-05T10:11:34;7.00;;;2.40;;
68803;SDS011;55787;52.678;13.314;2022-07-05T10:14:07;5.65;;;2.33;;
68803;SDS011;55787;52.678;13.314;2022-07-05T10:16:37;6.55;;;2.25;;
68803;SDS011;55787;52.678;13.314;2022-07-05T10:19:03;8.73;;;2.70;;
68803;SDS011;55787;52.678;13.314;2022-07-05T10:21:34;6.60;;;1.80;;
68803;SDS011;55787;52.678;13.314;2022-07-05T10:24:21;5.85;;;1.75;;
68803;SDS011;55787;52.678;13.314;2022-07-05T10:26:48;5.82;;;1.70;;
68803;SDS011;55787;52.678;13.314;2022-07-05T10:29:15;6.45;;;1.80;;
68803;SDS011;55787;52.678;13.314;2022-07-05T10:31:42;7.35;;;1.88;;
68803;SDS011;55787;52.678;13.314;2022-07-05T10:34:10;6.82;;;1.83;;
68803;SDS011;55787;52.678;13.314;2022-07-05T10:36:58;6.13;;;1.67;;
68803;SDS011;55787;52.678;13.314;2022-07-05T10:39:25;5.60;;;2.03;;
68803;SDS011;55787;52.678;13.314;2022-07-05T10:41:52;6.30;;;2.28;;
68803;SDS011;55787;52.678;13.314;2022-07-05T10:44:30;7.22;;;2.25;;
68803;SDS011;55787;52.678;13.314;2022-07-05T10:47:10;6.25;;;2.42;;
68803;SDS011;55787;52.678;13.314;2022-07-05T10:49:38;6.50;;;2.35;;
68803;SDS011;55787;52.678;13.314;2022-07-05T10:52:05;6.13;;;2.47;;
68803;SDS011;55787;52.678;13.314;2022-07-05T11:00:43;6.97;;;1.95;;
68803;SDS011;55787;52.678;13.314;2022-07-05T11:06:21;5.90;;;1.70;;
68803;SDS011;55787;52.678;13.314;2022-07-05T11:11:25;5.85;;;1.88;;
68803;SDS011;55787;52.678;13.314;2022-07-05T11:13:53;4.70;;;1.27;;
68803;SDS011;55787;52.678;13.314;2022-07-05T11:16:24;5.53;;;1.65;;
68803;SDS011;55787;52.678;13.314;2022-07-05T11:19:14;6.90;;;2.00;;
68803;SDS011;55787;52.678;13.314;2022-07-05T11:21:40;6.55;;;2.40;;
68803;SDS011;55787;52.678;13.314;2022-07-05T11:24:27;6.50;;;1.50;;
68803;SDS011;55787;52.678;13.314;2022-07-05T11:26:57;5.70;;;1.70;;
68803;SDS011;55787;52.678;13.314;2022-07-05T11:32:10;5.75;;;1.75;;
68803;SDS011;55787;52.678;13.314;2022-07-05T11:34:42;6.67;;;1.83;;
68803;SDS011;55787;52.678;13.314;2022-07-05T11:37:22;6.35;;;1.58;;
68803;SDS011;55787;52.678;13.314;2022-07-05T11:42:32;6.55;;;2.08;;
68803;SDS011;55787;52.678;13.314;2022-07-05T11:45:00;5.97;;;2.30;;
68803;SDS011;55787;52.678;13.314;2022-07-05T11:47:33;6.03;;;2.03;;
68803;SDS011;55787;52.678;13.314;2022-07-05T11:50:08;9.50;;;1.92;;
68803;SDS011;55787;52.678;13.314;2022-07-05T11:52:36;6.20;;;2.00;;
68803;SDS011;55787;52.678;13.314;2022-07-05T11:55:10;7.32;;;2.03;;
68803;SDS011;55787;52.678;13.314;2022-07-05T11:57:38;5.72;;;1.60;;
68803;SDS011;55787;52.678;13.314;2022-07-05T12:00:25;5.40;;;1.40;;
68803;SDS011;55787;52.678;13.314;2022-07-05T12:02:59;5.78;;;2.00;;
68803;SDS011;55787;52.678;13.314;2022-07-05T12:05:29;4.90;;;1.40;;
68803;SDS011;55787;52.678;13.314;2022-07-05T12:07:57;5.78;;;1.50;;
68803;SDS011;55787;52.678;13.314;2022-07-05T12:10:24;5.40;;;1.35;;
68803;SDS011;55787;52.678;13.314;2022-07-05T12:13:29;6.23;;;1.37;;
68803;SDS011;55787;52.678;13.314;2022-07-05T12:15:59;5.22;;;1.63;;
68803;SDS011;55787;52.678;13.314;2022-07-05T12:18:27;6.35;;;1.60;;
68803;SDS011;55787;52.678;13.314;2022-07-05T12:20:54;6.97;;;1.60;;
68803;SDS011;55787;52.678;13.314;2022-07-05T12:23:26;6.15;;;1.70;;
68803;SDS011;55787;52.678;13.314;2022-07-05T12:25:53;5.57;;;2.15;;
68803;SDS011;55787;52.678;13.314;2022-07-05T12:28:20;5.85;;;1.70;;
68803;SDS011;55787;52.678;13.314;2022-07-05T12:30:47;5.80;;;1.88;;
68803;SDS011;55787;52.678;13.314;2022-07-05T12:33:13;7.15;;;1.98;;
68803;SDS011;55787;52.678;13.314;2022-07-05T12:35:44;5.20;;;1.80;;
68803;SDS011;55787;52.678;13.314;2022-07-05T12:38:15;4.83;;;1.50;;
68803;SDS011;55787;52.678;13.314;2022-07-05T12:40:49;5.60;;;2.03;;
68803;SDS011;55787;52.678;13.314;2022-07-05T12:43:24;7.40;;;1.70;;
68803;SDS011;55787;52.678;13.314;2022-07-05T12:46:00;7.45;;;2.30;;
68803;SDS011;55787;52.678;13.314;2022-07-05T12:48:33;4.95;;;1.60;;
68803;SDS011;55787;52.678;13.314;2022-07-05T12:51:01;5.50;;;1.43;;
68803;SDS011;55787;52.678;13.314;2022-07-05T12:53:46;6.00;;;1.73;;
68803;SDS011;55787;52.678;13.314;2022-07-05T12:56:32;5.55;;;1.42;;
68803;SDS011;55787;52.678;13.314;2022-07-05T12:59:38;6.07;;;1.83;;
68803;SDS011;55787;52.678;13.314;2022-07-05T13:02:06;6.35;;;1.83;;
68803;SDS011;55787;52.678;13.314;2022-07-05T13:04:33;6.53;;;1.70;;
68803;SDS011;55787;52.678;13.314;2022-07-05T13:07:00;6.45;;;2.05;;
68803;SDS011;55787;52.678;13.314;2022-07-05T13:09:42;5.57;;;1.88;;
68803;SDS011;55787;52.678;13.314;2022-07-05T13:12:10;5.88;;;1.58;;
68803;SDS011;55787;52.678;13.314;2022-07-05T13:14:40;4.88;;;1.23;;
68803;SDS011;55787;52.678;13.314;2022-07-05T13:17:08;6.22;;;1.90;;
68803;SDS011;55787;52.678;13.314;2022-07-05T13:19:36;7.28;;;1.60;;
68803;SDS011;55787;52.678;13.314;2022-07-05T13:22:04;7.05;;;1.65;;
68803;SDS011;55787;52.678;13.314;2022-07-05T13:24:31;5.68;;;1.25;;
68803;SDS011;55787;52.678;13.314;2022-07-05T13:26:57;5.63;;;1.75;;
68803;SDS011;55787;52.678;13.314;2022-07-05T13:29:24;6.30;;;1.40;;
68803;SDS011;55787;52.678;13.314;2022-07-05T13:31:51;7.25;;;1.30;;
68803;SDS011;55787;52.678;13.314;2022-07-05T13:34:18;5.80;;;1.40;;
68803;SDS011;55787;52.678;13.314;2022-07-05T13:36:45;5.82;;;1.48;;
68803;SDS011;55787;52.678;13.314;2022-07-05T13:39:11;5.82;;;1.70;;
68803;SDS011;55787;52.678;13.314;2022-07-05T13:41:38;7.20;;;1.60;;
68803;SDS011;55787;52.678;13.314;2022-07-05T13:44:04;5.22;;;1.40;;
68803;SDS011;55787;52.678;13.314;2022-07-05T13:46:31;5.45;;;1.45;;
68803;SDS011;55787;52.678;13.314;2022-07-05T13:48:57;6.78;;;1.33;;
68803;SDS011;55787;52.678;13.314;2022-07-05T13:51:24;5.32;;;1.20;;
68803;SDS011;55787;52.678;13.314;2022-07-05T13:53:55;6.53;;;1.13;;
68803;SDS011;55787;52.678;13.314;2022-07-05T13:56:21;6.43;;;1.20;;
68803;SDS011;55787;52.678;13.314;2022-07-05T13:58:48;5.45;;;1.27;;
68803;SDS011;55787;52.678;13.314;2022-07-05T14:01:15;7.15;;;1.48;;
68803;SDS011;55787;52.678;13.314;2022-07-05T14:03:43;5.32;;;1.30;;
68803;SDS011;55787;52.678;13.314;2022-07-05T14:06:10;5.80;;;1.87;;
68803;SDS011;55787;52.678;13.314;2022-07-05T14:08:36;6.30;;;1.60;;
68803;SDS011;55787;52.678;13.314;2022-07-05T14:11:03;6.07;;;1.55;;
68803;SDS011;55787;52.678;13.314;2022-07-05T14:13:29;7.07;;;1.55;;
68803;SDS011;55787;52.678;13.314;2022-07-05T14:15:56;7.72;;;1.50;;
68803;SDS011;55787;52.678;13.314;2022-07-05T14:18:23;6.30;;;1.50;;
68803;SDS011;55787;52.678;13.314;2022-07-05T14:20:53;6.03;;;1.50;;
68803;SDS011;55787;52.678;13.314;2022-07-05T14:23:19;5.70;;;1.50;;
68803;SDS011;55787;52.678;13.314;2022-07-05T14:25:46;5.38;;;1.38;;
68803;SDS011;55787;52.678;13.314;2022-07-05T14:28:13;6.05;;;1.50;;
68803;SDS011;55787;52.678;13.314;2022-07-05T14:30:40;7.07;;;1.50;;
68803;SDS011;55787;52.678;13.314;2022-07-05T14:33:09;5.47;;;1.45;;
68803;SDS011;55787;52.678;13.314;2022-07-05T14:35:37;6.90;;;1.50;;
68803;SDS011;55787;52.678;13.314;2022-07-05T14:38:04;5.55;;;1.17;;
68803;SDS011;55787;52.678;13.314;2022-07-05T14:40:31;5.50;;;1.23;;
68803;SDS011;55787;52.678;13.314;2022-07-05T14:42:58;5.30;;;1.40;;
68803;SDS011;55787;52.678;13.314;2022-07-05T14:45:26;6.38;;;1.40;;
68803;SDS011;55787;52.678;13.314;2022-07-05T14:47:54;5.47;;;1.33;;
68803;SDS011;55787;52.678;13.314;2022-07-05T14:50:21;5.22;;;1.33;;
68803;SDS011;55787;52.678;13.314;2022-07-05T14:52:48;6.95;;;1.40;;
68803;SDS011;55787;52.678;13.314;2022-07-05T14:55:14;6.03;;;1.20;;
68803;SDS011;55787;52.678;13.314;2022-07-05T14:57:42;5.75;;;1.45;;
68803;SDS011;55787;52.678;13.314;2022-07-05T15:00:10;6.55;;;1.38;;
68803;SDS011;55787;52.678;13.314;2022-07-05T15:02:39;5.82;;;1.30;;
68803;SDS011;55787;52.678;13.314;2022-07-05T15:05:06;6.43;;;1.30;;
68803;SDS011;55787;52.678;13.314;2022-07-05T15:07:34;5.13;;;1.17;;
68803;SDS011;55787;52.678;13.314;2022-07-05T15:10:00;7.05;;;1.40;;